Time;durP1;ratioP1;P1;durP2;ratioP2;P2;SDS_P1;SDS_P2;PMS_P1;PMS_P2;Temp;Humidity;BMP_temperature;BMP_pressure;BME280_temperature;BME280_humidity;BME280_pressure;Samples;Min_cycle;Max_cycle;Signal;HPM_P1;HPM_P2
2022/06/02 00:01:10;;;;;;;1.67;1.42;;;;;;;;;;5140866;27;20611;-60
2022/06/02 00:03:42;;;;;;;1.20;1.10;;;;;;;;;;5141116;27;20205;-60
2022/06/02 00:06:14;;;;;;;1.50;1.40;;;;;;;;;;5140129;27;20264;-60
2022/06/02 00:08:48;;;;;;;1.20;1.10;;;;;;;;;;5140365;27;20206;-60
2022/06/02 00:11:29;;;;;;;1.25;1.10;;;;;;;;;;5140017;27;20204;-60
2022/06/02 00:13:59;;;;;;;1.33;1.23;;;;;;;;;;5140022;27;20216;-60
2022/06/02 00:16:31;;;;;;;1.58;1.45;;;;;;;;;;5141036;27;20202;-60
2022/06/02 00:19:01;;;;;;;1.50;1.40;;;;;;;;;;5140232;27;20216;-60
2022/06/02 00:21:32;;;;;;;1.58;1.48;;;;;;;;;;5140605;27;20202;-59
2022/06/02 00:24:02;;;;;;;1.50;1.40;;;;;;;;;;5140951;27;20211;-60
2022/06/02 00:26:34;;;;;;;1.20;1.20;;;;;;;;;;5140139;27;20202;-60
2022/06/02 00:29:07;;;;;;;1.40;1.30;;;;;;;;;;5140720;27;20210;-60
2022/06/02 00:31:39;;;;;;;1.50;1.40;;;;;;;;;;5139738;27;20202;-60
2022/06/02 00:34:12;;;;;;;1.50;1.40;;;;;;;;;;5140281;27;20208;-60
2022/06/02 00:36:42;;;;;;;1.55;1.45;;;;;;;;;;5139976;27;20202;-60
2022/06/02 00:39:09;;;;;;;1.55;1.45;;;;;;;;;;5140402;27;20218;-60
2022/06/02 00:41:43;;;;;;;1.45;1.35;;;;;;;;;;5140255;27;20248;-60
2022/06/02 00:44:17;;;;;;;1.48;1.30;;;;;;;;;;5140142;27;20229;-60
2022/06/02 00:46:55;;;;;;;2.13;1.30;;;;;;;;;;5140428;27;20604;-60
2022/06/02 00:49:27;;;;;;;3.63;1.60;;;;;;;;;;5140108;27;20253;-59
2022/06/02 00:52:01;;;;;;;1.33;1.30;;;;;;;;;;5139978;27;20221;-60
2022/06/02 00:57:32;;;;;;;1.40;1.30;;;;;;;;;;5140005;27;20243;-59
2022/06/02 01:00:13;;;;;;;1.20;1.20;;;;;;;;;;5140291;27;20293;-60
2022/06/02 01:02:50;;;;;;;1.38;1.27;;;;;;;;;;5140175;27;20202;-59
2022/06/02 01:05:23;;;;;;;1.40;1.30;;;;;;;;;;5139680;27;20248;-59
2022/06/02 01:07:54;;;;;;;1.50;1.40;;;;;;;;;;5139330;27;20202;-60
2022/06/02 01:10:30;;;;;;;1.40;1.30;;;;;;;;;;5139531;27;20217;-59
2022/06/02 01:13:07;;;;;;;1.35;1.25;;;;;;;;;;5139880;27;20202;-59
2022/06/02 01:15:42;;;;;;;1.40;1.40;;;;;;;;;;5139685;27;20208;-60
2022/06/02 01:18:13;;;;;;;1.50;1.40;;;;;;;;;;5140299;27;20210;-59
2022/06/02 01:20:43;;;;;;;1.50;1.40;;;;;;;;;;5139627;27;20202;-60
2022/06/02 01:23:28;;;;;;;1.33;1.33;;;;;;;;;;5139491;27;20251;-60
2022/06/02 01:26:06;;;;;;;1.40;1.30;;;;;;;;;;5139057;27;20279;-61
2022/06/02 01:28:50;;;;;;;1.50;1.40;;;;;;;;;;5139400;27;20593;-61
2022/06/02 01:31:25;;;;;;;1.50;1.40;;;;;;;;;;5139419;27;20202;-59
2022/06/02 01:33:57;;;;;;;1.50;1.40;;;;;;;;;;5139257;27;20277;-60
2022/06/02 01:36:27;;;;;;;1.85;1.30;;;;;;;;;;5139085;27;20190;-60
2022/06/02 01:39:00;;;;;;;1.42;1.33;;;;;;;;;;5139119;27;20212;-59
2022/06/02 01:41:32;;;;;;;1.52;1.42;;;;;;;;;;5139385;27;20543;-60
2022/06/02 01:44:03;;;;;;;1.67;1.42;;;;;;;;;;5138675;27;20212;-60
2022/06/02 01:46:48;;;;;;;1.33;1.33;;;;;;;;;;5138486;27;20237;-60
2022/06/02 01:49:28;;;;;;;1.50;1.40;;;;;;;;;;5139028;27;20202;-60
2022/06/02 01:51:59;;;;;;;1.50;1.40;;;;;;;;;;5139299;27;20201;-60
2022/06/02 01:54:33;;;;;;;1.60;1.50;;;;;;;;;;5138574;27;20220;-60
2022/06/02 01:57:06;;;;;;;1.33;1.23;;;;;;;;;;5138284;27;20206;-60
2022/06/02 01:59:38;;;;;;;1.50;1.40;;;;;;;;;;5138663;27;20581;-60
2022/06/02 02:02:11;;;;;;;1.33;1.27;;;;;;;;;;5138298;27;20209;-59
2022/06/02 02:04:55;;;;;;;1.60;1.50;;;;;;;;;;5138576;27;20476;-59
2022/06/02 02:07:27;;;;;;;1.60;1.50;;;;;;;;;;5138264;27;20292;-60
2022/06/02 02:09:59;;;;;;;1.50;1.40;;;;;;;;;;5138791;27;20213;-59
2022/06/02 02:12:34;;;;;;;1.80;1.70;;;;;;;;;;5138002;27;20217;-60
2022/06/02 02:15:12;;;;;;;1.52;1.42;;;;;;;;;;5138441;27;20198;-60
2022/06/02 02:17:49;;;;;;;1.60;1.50;;;;;;;;;;5138592;27;20210;-61
2022/06/02 02:20:23;;;;;;;1.50;1.40;;;;;;;;;;5137412;27;20228;-59
2022/06/02 02:22:56;;;;;;;1.70;1.60;;;;;;;;;;5138229;27;20217;-60
2022/06/02 02:25:28;;;;;;;1.50;1.40;;;;;;;;;;5137669;27;20226;-60
2022/06/02 02:28:03;;;;;;;1.60;1.50;;;;;;;;;;5138708;27;20210;-60
2022/06/02 02:30:32;;;;;;;1.40;1.30;;;;;;;;;;5138150;27;20206;-60
2022/06/02 02:33:02;;;;;;;1.60;1.50;;;;;;;;;;5138272;27;20202;-60
2022/06/02 02:35:42;;;;;;;1.40;1.30;;;;;;;;;;5138628;27;20198;-60
2022/06/02 02:38:11;;;;;;;1.60;1.50;;;;;;;;;;5138016;27;20486;-60
2022/06/02 02:40:41;;;;;;;1.58;1.48;;;;;;;;;;5138120;27;20601;-60
2022/06/02 02:43:10;;;;;;;1.63;1.52;;;;;;;;;;5138225;27;20212;-60
2022/06/02 02:45:44;;;;;;;1.70;1.60;;;;;;;;;;5137715;28;20310;-61
2022/06/02 02:48:17;;;;;;;1.48;1.38;;;;;;;;;;5138698;28;20206;-60
2022/06/02 02:50:51;;;;;;;1.35;1.30;;;;;;;;;;5137932;28;20596;-60
2022/06/02 02:53:21;;;;;;;1.50;1.40;;;;;;;;;;5137103;28;20201;-60
2022/06/02 02:55:54;;;;;;;1.50;1.40;;;;;;;;;;5137939;28;20524;-60
2022/06/02 02:58:25;;;;;;;1.70;1.60;;;;;;;;;;5138191;28;20209;-60
2022/06/02 03:00:59;;;;;;;1.33;1.33;;;;;;;;;;5137193;28;20202;-60
2022/06/02 03:03:28;;;;;;;1.73;1.63;;;;;;;;;;5137976;28;20296;-60
2022/06/02 03:06:04;;;;;;;1.58;1.48;;;;;;;;;;5137451;28;20226;-59
2022/06/02 03:08:36;;;;;;;1.40;1.30;;;;;;;;;;5137858;28;20236;-59
2022/06/02 03:11:10;;;;;;;1.58;1.48;;;;;;;;;;5137633;28;20229;-60
2022/06/02 03:13:41;;;;;;;1.45;1.35;;;;;;;;;;5138621;28;20217;-60
2022/06/02 03:16:11;;;;;;;1.40;1.40;;;;;;;;;;5137297;28;20205;-60
2022/06/02 03:18:45;;;;;;;1.30;1.30;;;;;;;;;;5137255;28;20206;-60
2022/06/02 03:21:17;;;;;;;1.70;1.60;;;;;;;;;;5138031;28;20208;-60
2022/06/02 03:23:56;;;;;;;1.40;1.30;;;;;;;;;;5139647;27;20198;-59
2022/06/02 03:26:28;;;;;;;1.58;1.48;;;;;;;;;;5141507;27;20233;-59
2022/06/02 03:29:02;;;;;;;1.58;1.48;;;;;;;;;;5140735;27;20209;-60
2022/06/02 03:31:33;;;;;;;1.33;1.33;;;;;;;;;;5141059;27;20201;-60
2022/06/02 03:34:03;;;;;;;1.50;1.40;;;;;;;;;;5141772;27;20229;-59
2022/06/02 03:36:48;;;;;;;1.50;1.40;;;;;;;;;;5141136;27;20195;-60
2022/06/02 03:39:18;;;;;;;1.50;1.40;;;;;;;;;;5140815;27;20202;-59
2022/06/02 03:41:50;;;;;;;1.60;1.50;;;;;;;;;;5141191;27;20238;-59
2022/06/02 03:44:24;;;;;;;1.52;1.45;;;;;;;;;;5141160;27;20600;-59
2022/06/02 03:47:03;;;;;;;1.52;1.45;;;;;;;;;;5141307;27;20222;-60
2022/06/02 03:49:40;;;;;;;1.60;1.50;;;;;;;;;;5140871;27;20212;-60
2022/06/02 03:52:18;;;;;;;1.40;1.30;;;;;;;;;;5140855;27;20201;-61
2022/06/02 03:54:52;;;;;;;1.42;1.40;;;;;;;;;;5140877;27;20210;-59
2022/06/02 03:57:32;;;;;;;1.58;1.48;;;;;;;;;;5140388;27;20198;-59
2022/06/02 04:00:08;;;;;;;1.70;1.60;;;;;;;;;;5140265;27;20258;-59
2022/06/02 04:02:41;;;;;;;1.50;1.40;;;;;;;;;;5140251;27;20581;-59
2022/06/02 04:05:15;;;;;;;1.48;1.38;;;;;;;;;;5140635;27;20297;-59
2022/06/02 04:07:46;;;;;;;1.65;1.55;;;;;;;;;;5140826;27;20229;-59
2022/06/02 04:10:18;;;;;;;1.50;1.50;;;;;;;;;;5140187;27;20206;-59
2022/06/02 04:16:09;;;;;;;1.40;1.40;;;;;;;;;;5140495;27;20208;-61
2022/06/02 04:18:42;;;;;;;1.40;1.30;;;;;;;;;;5133647;27;20203;-60
2022/06/02 04:21:12;;;;;;;1.40;1.25;;;;;;;;;;5140697;27;20206;-60
2022/06/02 04:23:44;;;;;;;1.55;1.52;;;;;;;;;;5139748;27;20588;-60
2022/06/02 04:26:16;;;;;;;1.42;1.38;;;;;;;;;;5140222;27;20226;-60
2022/06/02 04:28:48;;;;;;;1.42;1.33;;;;;;;;;;5138921;27;20209;-60
2022/06/02 04:31:30;;;;;;;1.30;1.30;;;;;;;;;;5139609;27;20213;-60
2022/06/02 04:34:02;;;;;;;1.20;1.20;;;;;;;;;;5138693;27;20203;-60
2022/06/02 04:36:35;;;;;;;1.60;1.50;;;;;;;;;;5139054;27;20194;-60
2022/06/02 04:39:09;;;;;;;1.52;1.42;;;;;;;;;;5138496;27;20209;-60
2022/06/02 04:41:42;;;;;;;1.67;1.45;;;;;;;;;;5137835;27;20252;-60
2022/06/02 04:44:14;;;;;;;1.58;1.50;;;;;;;;;;5138586;27;20213;-60
2022/06/02 04:46:52;;;;;;;1.30;1.30;;;;;;;;;;5138795;27;20226;-60
2022/06/02 04:49:22;;;;;;;1.55;1.45;;;;;;;;;;5138755;27;20481;-60
2022/06/02 04:51:53;;;;;;;1.63;1.52;;;;;;;;;;5138519;27;20206;-60
2022/06/02 04:54:31;;;;;;;1.52;1.42;;;;;;;;;;5138419;27;20308;-60
2022/06/02 04:57:00;;;;;;;1.52;1.42;;;;;;;;;;5137409;27;20201;-60
2022/06/02 04:59:29;;;;;;;1.80;1.70;;;;;;;;;;5137069;27;20238;-60
2022/06/02 05:02:01;;;;;;;1.60;1.50;;;;;;;;;;5137223;27;20209;-60
2022/06/02 05:04:35;;;;;;;1.45;1.40;;;;;;;;;;5137650;27;20202;-60
2022/06/02 05:07:09;;;;;;;1.42;1.40;;;;;;;;;;5136844;27;20226;-60
2022/06/02 05:09:43;;;;;;;1.60;1.50;;;;;;;;;;5136525;27;20197;-60
2022/06/02 05:12:19;;;;;;;1.77;1.67;;;;;;;;;;5137490;27;20210;-60
2022/06/02 05:14:49;;;;;;;1.70;1.60;;;;;;;;;;5136860;27;20194;-60
2022/06/02 05:17:24;;;;;;;1.58;1.48;;;;;;;;;;5136432;27;20194;-60
2022/06/02 05:20:02;;;;;;;1.60;1.50;;;;;;;;;;5137293;27;20507;-60
2022/06/02 05:22:41;;;;;;;1.40;1.40;;;;;;;;;;5136239;27;20193;-60
2022/06/02 05:25:20;;;;;;;1.48;1.40;;;;;;;;;;5136816;27;20234;-59
2022/06/02 05:27:58;;;;;;;1.70;1.60;;;;;;;;;;5137655;27;20689;-60
2022/06/02 05:30:49;;;;;;;1.42;1.42;;;;;;;;;;5136487;27;20198;-59
2022/06/02 05:33:35;;;;;;;1.63;1.52;;;;;;;;;;5060150;27;20304;-60
2022/06/02 05:36:10;;;;;;;1.70;1.60;;;;;;;;;;5136915;27;20198;-60
2022/06/02 05:38:48;;;;;;;1.40;1.30;;;;;;;;;;5136775;27;20208;-60
2022/06/02 05:41:23;;;;;;;1.35;1.27;;;;;;;;;;5136405;27;20222;-59
2022/06/02 05:43:53;;;;;;;1.50;1.40;;;;;;;;;;5138106;27;20211;-60
2022/06/02 05:46:33;;;;;;;1.40;1.30;;;;;;;;;;5134224;27;20232;-60
2022/06/02 05:49:06;;;;;;;1.50;1.40;;;;;;;;;;5133617;27;20201;-60
2022/06/02 05:51:36;;;;;;;1.48;1.38;;;;;;;;;;5134641;27;20248;-59
2022/06/02 05:54:17;;;;;;;1.10;1.10;;;;;;;;;;5134684;27;20202;-61
2022/06/02 05:56:54;;;;;;;1.50;1.40;;;;;;;;;;5132850;27;20194;-60
2022/06/02 05:59:52;;;;;;;1.35;1.27;;;;;;;;;;5133881;27;20229;-59
2022/06/02 06:02:38;;;;;;;1.40;1.33;;;;;;;;;;5050661;28;20201;-60
2022/06/02 06:05:17;;;;;;;1.20;1.20;;;;;;;;;;5125831;27;20482;-60
2022/06/02 06:07:59;;;;;;;1.40;1.30;;;;;;;;;;5133128;27;20229;-60
2022/06/02 06:10:29;;;;;;;1.45;1.35;;;;;;;;;;5116018;27;20213;-60
2022/06/02 06:13:09;;;;;;;2.65;2.40;;;;;;;;;;5132154;27;20271;-61
2022/06/02 06:15:44;;;;;;;3.70;3.15;;;;;;;;;;5133756;27;20445;-60
2022/06/02 06:18:16;;;;;;;5.38;4.88;;;;;;;;;;5133457;27;20642;-60
2022/06/02 06:20:53;;;;;;;9.07;5.90;;;;;;;;;;5135843;27;20194;-60
2022/06/02 06:23:32;;;;;;;8.55;7.55;;;;;;;;;;5133527;27;20202;-60
2022/06/02 06:26:06;;;;;;;10.35;8.80;;;;;;;;;;5133141;27;20377;-60
2022/06/02 06:28:37;;;;;;;10.90;9.90;;;;;;;;;;5134229;27;20213;-61
2022/06/02 06:31:08;;;;;;;10.68;9.55;;;;;;;;;;5133826;27;20612;-60
2022/06/02 06:33:42;;;;;;;11.82;10.65;;;;;;;;;;5133823;27;20502;-59
2022/06/02 06:36:15;;;;;;;11.10;10.00;;;;;;;;;;5134809;27;20198;-59
2022/06/02 06:38:50;;;;;;;12.35;11.05;;;;;;;;;;5135843;27;20214;-59
2022/06/02 06:41:39;;;;;;;11.23;10.13;;;;;;;;;;5135107;27;20541;-59
2022/06/02 06:44:17;;;;;;;11.55;10.50;;;;;;;;;;5125290;27;20203;-58
2022/06/02 06:46:50;;;;;;;11.35;10.23;;;;;;;;;;5152760;27;20229;-59
2022/06/02 06:49:21;;;;;;;11.27;10.23;;;;;;;;;;5156261;27;20210;-58
2022/06/02 06:52:01;;;;;;;11.23;10.18;;;;;;;;;;5155739;27;20193;-60
2022/06/02 06:54:36;;;;;;;10.68;9.68;;;;;;;;;;5145039;27;20510;-59
2022/06/02 06:57:07;;;;;;;11.73;10.52;;;;;;;;;;5144603;27;20287;-60
2022/06/02 06:59:42;;;;;;;12.38;11.18;;;;;;;;;;5144562;27;20256;-59
2022/06/02 07:02:17;;;;;;;11.68;10.48;;;;;;;;;;5146823;27;20229;-59
2022/06/02 07:04:48;;;;;;;12.05;10.68;;;;;;;;;;5138533;27;20585;-58
2022/06/02 07:07:20;;;;;;;11.60;10.50;;;;;;;;;;5139078;27;20221;-59
2022/06/02 07:09:52;;;;;;;12.27;11.07;;;;;;;;;;5144189;27;20193;-59
2022/06/02 07:15:13;;;;;;;11.60;10.50;;;;;;;;;;5148175;27;20240;-58
2022/06/02 07:17:45;;;;;;;11.43;10.32;;;;;;;;;;5156552;27;20598;-60
2022/06/02 07:20:17;;;;;;;11.85;10.68;;;;;;;;;;5157543;27;20498;-59
2022/06/02 07:22:48;;;;;;;12.02;10.82;;;;;;;;;;5160063;27;20258;-59
2022/06/02 07:25:18;;;;;;;11.40;10.32;;;;;;;;;;5159959;27;20237;-59
2022/06/02 07:27:51;;;;;;;12.27;11.07;;;;;;;;;;5159760;27;20221;-59
2022/06/02 07:30:26;;;;;;;11.68;10.57;;;;;;;;;;5159344;27;20201;-59
2022/06/02 07:33:11;;;;;;;11.68;10.48;;;;;;;;;;5158999;27;20205;-60
2022/06/02 07:35:53;;;;;;;11.18;10.07;;;;;;;;;;5159202;27;20193;-60
2022/06/02 07:38:30;;;;;;;11.00;10.00;;;;;;;;;;5159320;27;20197;-59
2022/06/02 07:41:07;;;;;;;11.55;10.45;;;;;;;;;;5158694;27;20328;-60
2022/06/02 07:43:41;;;;;;;10.40;9.40;;;;;;;;;;5153078;27;20201;-60
2022/06/02 07:46:31;;;;;;;11.18;10.07;;;;;;;;;;5159137;27;20232;-60
2022/06/02 07:49:09;;;;;;;11.40;10.32;;;;;;;;;;5159135;27;20201;-60
2022/06/02 07:51:41;;;;;;;10.75;9.75;;;;;;;;;;5159335;27;20201;-59
2022/06/02 07:54:24;;;;;;;10.43;9.43;;;;;;;;;;5145825;27;20195;-61
2022/06/02 07:56:56;;;;;;;10.40;9.40;;;;;;;;;;5138013;27;20202;-60
2022/06/02 07:59:30;;;;;;;9.52;8.57;;;;;;;;;;5137478;27;20297;-61
2022/06/02 08:02:16;;;;;;;9.93;8.93;;;;;;;;;;5137737;27;20248;-60
2022/06/02 08:04:46;;;;;;;9.32;8.52;;;;;;;;;;5138451;27;20206;-60
2022/06/02 08:07:29;;;;;;;10.25;8.63;;;;;;;;;;5138595;27;20324;-60
2022/06/02 08:10:03;;;;;;;9.75;8.75;;;;;;;;;;5137120;27;20198;-60
2022/06/02 08:12:35;;;;;;;8.95;8.10;;;;;;;;;;5138670;27;20211;-60
2022/06/02 08:15:17;;;;;;;9.90;7.88;;;;;;;;;;5137721;27;20202;-60
2022/06/02 08:17:49;;;;;;;9.43;8.43;;;;;;;;;;5118706;27;20198;-60
2022/06/02 08:20:26;;;;;;;9.18;8.25;;;;;;;;;;5135841;27;20572;-61
2022/06/02 08:22:57;;;;;;;8.65;7.85;;;;;;;;;;5136056;27;20462;-59
2022/06/02 08:25:25;;;;;;;8.93;8.02;;;;;;;;;;5135391;27;20214;-60
2022/06/02 08:28:11;;;;;;;8.65;7.35;;;;;;;;;;5134112;27;20222;-61
2022/06/02 08:30:42;;;;;;;7.97;7.28;;;;;;;;;;5122818;27;20214;-60
2022/06/02 08:33:17;;;;;;;8.07;7.28;;;;;;;;;;5135081;27;20210;-61
2022/06/02 08:35:47;;;;;;;8.68;7.88;;;;;;;;;;5135976;27;20292;-61
2022/06/02 08:38:25;;;;;;;8.00;7.20;;;;;;;;;;5134152;27;20194;-60
2022/06/02 08:41:28;;;;;;;8.93;7.13;;;;;;;;;;5134514;27;20410;-59
2022/06/02 08:44:09;;;;;;;8.43;6.75;;;;;;;;;;5134635;27;20285;-59
2022/06/02 08:46:53;;;;;;;7.90;6.70;;;;;;;;;;5135813;27;20225;-60
2022/06/02 08:49:39;;;;;;;7.55;6.38;;;;;;;;;;5133937;27;20194;-60
2022/06/02 08:52:21;;;;;;;7.65;6.43;;;;;;;;;;5134741;27;20213;-60
2022/06/02 08:55:10;;;;;;;6.82;6.13;;;;;;;;;;5136104;27;20597;-60
2022/06/02 08:57:49;;;;;;;7.00;6.28;;;;;;;;;;5101977;27;20191;-60
2022/06/02 09:00:30;;;;;;;6.80;6.10;;;;;;;;;;5136142;27;20201;-60
2022/06/02 09:03:12;;;;;;;6.32;5.72;;;;;;;;;;5133127;27;20271;-60
2022/06/02 09:05:54;;;;;;;7.32;6.30;;;;;;;;;;5134880;27;20200;-60
2022/06/02 09:08:32;;;;;;;6.32;5.35;;;;;;;;;;5132807;27;20516;-61
2022/06/02 09:11:18;;;;;;;6.32;5.72;;;;;;;;;;5135243;27;20194;-59
2022/06/02 09:14:01;;;;;;;6.00;5.40;;;;;;;;;;5135886;27;20301;-60
2022/06/02 09:16:34;;;;;;;5.97;5.38;;;;;;;;;;5135757;27;20194;-60
2022/06/02 09:19:29;;;;;;;6.22;5.63;;;;;;;;;;5136776;27;20280;-60
2022/06/02 09:22:06;;;;;;;5.38;4.88;;;;;;;;;;5135291;27;20511;-60
2022/06/02 09:24:43;;;;;;;5.45;4.95;;;;;;;;;;5135874;27;20204;-60
2022/06/02 09:27:29;;;;;;;6.10;5.50;;;;;;;;;;5136277;27;20554;-60
2022/06/02 09:29:58;;;;;;;5.32;4.85;;;;;;;;;;5135283;27;20210;-60
2022/06/02 09:32:47;;;;;;;4.95;4.43;;;;;;;;;;5135734;27;20267;-60
2022/06/02 09:35:19;;;;;;;6.43;4.80;;;;;;;;;;5135083;27;20240;-60
2022/06/02 09:38:07;;;;;;;4.97;4.47;;;;;;;;;;5134752;27;20262;-60
2022/06/02 09:40:44;;;;;;;4.82;4.43;;;;;;;;;;5127929;27;20508;-60
2022/06/02 09:43:21;;;;;;;4.72;4.32;;;;;;;;;;5132833;27;20213;-60
2022/06/02 09:45:55;;;;;;;4.97;4.18;;;;;;;;;;5134122;27;20205;-60
2022/06/02 09:48:29;;;;;;;4.47;4.07;;;;;;;;;;5132029;27;20324;-60
2022/06/02 09:51:20;;;;;;;4.30;3.90;;;;;;;;;;5133389;27;20198;-60
2022/06/02 09:54:00;;;;;;;4.18;3.70;;;;;;;;;;5112565;27;20194;-60
2022/06/02 09:56:43;;;;;;;4.78;3.85;;;;;;;;;;5133062;27;20210;-60
2022/06/02 09:59:12;;;;;;;4.57;4.03;;;;;;;;;;5131562;27;20696;-60
2022/06/02 10:01:49;;;;;;;4.07;3.67;;;;;;;;;;5132438;27;20573;-60
2022/06/02 10:04:37;;;;;;;4.38;3.78;;;;;;;;;;5132833;27;20233;-60
2022/06/02 10:07:26;;;;;;;3.85;3.55;;;;;;;;;;5131624;27;20203;-60
2022/06/02 10:10:14;;;;;;;3.47;3.17;;;;;;;;;;5131314;27;20198;-59
2022/06/02 10:12:56;;;;;;;4.10;3.70;;;;;;;;;;5099262;27;20207;-60
2022/06/02 10:15:31;;;;;;;4.07;3.35;;;;;;;;;;5131270;27;20302;-60
2022/06/02 10:18:04;;;;;;;3.72;3.22;;;;;;;;;;5131995;27;20216;-61
2022/06/02 10:21:00;;;;;;;3.33;2.97;;;;;;;;;;5131266;27;20206;-60
2022/06/02 10:23:54;;;;;;;3.30;3.00;;;;;;;;;;5132587;27;20206;-60
2022/06/02 10:26:27;;;;;;;3.53;3.22;;;;;;;;;;5083116;27;20476;-60
2022/06/02 10:29:04;;;;;;;3.40;3.10;;;;;;;;;;5133407;27;20477;-60
2022/06/02 10:31:56;;;;;;;3.15;2.88;;;;;;;;;;5133128;27;20202;-60
2022/06/02 10:34:42;;;;;;;3.28;2.97;;;;;;;;;;5111541;27;20197;-60
2022/06/02 10:37:16;;;;;;;3.22;2.60;;;;;;;;;;5132929;27;20206;-60
2022/06/02 10:40:04;;;;;;;2.90;2.70;;;;;;;;;;5133355;27;20201;-60
2022/06/02 10:42:40;;;;;;;2.72;2.53;;;;;;;;;;5130065;27;20511;-60
2022/06/02 10:45:27;;;;;;;2.45;2.25;;;;;;;;;;5132008;27;20611;-60
2022/06/02 10:48:12;;;;;;;2.40;2.20;;;;;;;;;;5093632;28;20218;-60
2022/06/02 10:50:50;;;;;;;2.40;2.20;;;;;;;;;;5133685;28;20584;-63
2022/06/02 10:53:35;;;;;;;2.50;2.30;;;;;;;;;;5134903;28;20465;-60
2022/06/02 10:56:14;;;;;;;2.72;2.53;;;;;;;;;;5135265;28;20542;-60
2022/06/02 10:58:59;;;;;;;3.78;2.30;;;;;;;;;;5134147;28;20213;-60
2022/06/02 11:01:42;;;;;;;3.17;2.53;;;;;;;;;;5133678;28;20226;-60
2022/06/02 11:04:24;;;;;;;2.55;2.35;;;;;;;;;;5133762;28;20232;-60
2022/06/02 11:07:13;;;;;;;2.55;2.35;;;;;;;;;;5134010;28;20252;-60
2022/06/02 11:09:56;;;;;;;2.42;2.10;;;;;;;;;;5134303;28;20226;-60
2022/06/02 11:12:42;;;;;;;2.20;2.00;;;;;;;;;;5126434;28;20191;-60
2022/06/02 11:15:25;;;;;;;2.13;1.95;;;;;;;;;;5114059;28;20207;-60
2022/06/02 11:18:02;;;;;;;2.67;1.95;;;;;;;;;;5113165;28;20203;-61
2022/06/02 11:20:44;;;;;;;2.22;2.03;;;;;;;;;;5113254;28;20210;-61
2022/06/02 11:23:29;;;;;;;1.90;1.80;;;;;;;;;;5050367;28;20211;-61
2022/06/02 11:26:14;;;;;;;2.05;1.80;;;;;;;;;;5109311;28;20203;-60
2022/06/02 11:29:10;;;;;;;2.10;1.90;;;;;;;;;;5113433;28;20222;-60
2022/06/02 11:31:50;;;;;;;1.80;1.70;;;;;;;;;;5113264;28;20800;-60
2022/06/02 11:34:33;;;;;;;1.70;1.60;;;;;;;;;;5113667;28;20203;-60
2022/06/02 11:37:30;;;;;;;1.80;1.70;;;;;;;;;;5111147;28;20260;-60
2022/06/02 11:40:13;;;;;;;1.83;1.73;;;;;;;;;;5113528;28;20201;-60
2022/06/02 11:42:56;;;;;;;1.73;1.63;;;;;;;;;;5113849;28;20727;-60
2022/06/02 11:45:36;;;;;;;1.70;1.60;;;;;;;;;;5137292;27;20202;-59
2022/06/02 11:48:11;;;;;;;1.80;1.70;;;;;;;;;;5137350;27;20226;-60
2022/06/02 11:50:57;;;;;;;1.65;1.55;;;;;;;;;;5136956;27;20198;-60
2022/06/02 11:53:33;;;;;;;1.70;1.60;;;;;;;;;;5136265;27;20282;-60
2022/06/02 11:56:04;;;;;;;1.83;1.50;;;;;;;;;;5135521;27;20198;-59
2022/06/02 11:58:43;;;;;;;1.55;1.45;;;;;;;;;;5136900;27;20219;-60
2022/06/02 12:01:21;;;;;;;1.38;1.27;;;;;;;;;;5136329;27;20596;-60
2022/06/02 12:04:05;;;;;;;1.40;1.30;;;;;;;;;;5134912;27;20495;-60
2022/06/02 12:06:43;;;;;;;1.77;1.40;;;;;;;;;;5133793;27;20259;-60
2022/06/02 12:09:18;;;;;;;1.40;1.30;;;;;;;;;;5133971;27;20222;-59
2022/06/02 12:12:15;;;;;;;1.38;1.27;;;;;;;;;;5133065;27;20293;-59
2022/06/02 12:14:56;;;;;;;1.50;1.40;;;;;;;;;;5029579;28;20198;-60
2022/06/02 12:17:34;;;;;;;1.70;1.45;;;;;;;;;;5119308;27;20201;-60
2022/06/02 12:20:19;;;;;;;4.22;1.50;;;;;;;;;;5125378;27;20201;-59
2022/06/02 12:22:59;;;;;;;3.08;1.48;;;;;;;;;;5133099;27;20489;-60
2022/06/02 12:25:36;;;;;;;2.78;1.38;;;;;;;;;;5091184;27;20229;-60
2022/06/02 12:28:21;;;;;;;1.52;1.25;;;;;;;;;;5130258;27;20214;-60
2022/06/02 12:30:57;;;;;;;2.70;1.20;;;;;;;;;;5132119;27;20205;-60
2022/06/02 12:33:45;;;;;;;1.30;1.20;;;;;;;;;;5133726;27;20512;-63
2022/06/02 12:36:40;;;;;;;2.10;1.30;;;;;;;;;;5090902;27;20202;-60
2022/06/02 12:39:25;;;;;;;1.83;1.20;;;;;;;;;;5132504;27;20203;-60
2022/06/02 12:42:16;;;;;;;1.45;1.35;;;;;;;;;;5114285;27;20222;-60
2022/06/02 12:44:55;;;;;;;1.42;1.20;;;;;;;;;;5134519;27;20214;-59
2022/06/02 12:47:46;;;;;;;2.42;1.40;;;;;;;;;;5134608;27;20266;-60
2022/06/02 12:50:27;;;;;;;1.10;1.00;;;;;;;;;;5132166;27;20500;-59
2022/06/02 12:53:09;;;;;;;1.00;1.00;;;;;;;;;;5133184;27;20212;-60
2022/06/02 12:55:53;;;;;;;1.30;1.15;;;;;;;;;;5129330;27;20202;-60
2022/06/02 12:58:36;;;;;;;1.20;1.10;;;;;;;;;;5134638;27;20478;-60
2022/06/02 13:01:09;;;;;;;1.20;1.10;;;;;;;;;;5132953;27;20263;-60
2022/06/02 13:03:58;;;;;;;1.40;1.30;;;;;;;;;;5131936;27;20309;-59
2022/06/02 13:06:44;;;;;;;1.25;1.10;;;;;;;;;;5131302;27;20194;-60
2022/06/02 13:09:32;;;;;;;2.17;1.15;;;;;;;;;;5132706;27;20226;-60
2022/06/02 13:12:17;;;;;;;1.33;1.20;;;;;;;;;;5134116;27;20190;-60
2022/06/02 13:15:01;;;;;;;1.45;1.10;;;;;;;;;;5134815;27;20634;-59
2022/06/02 13:17:34;;;;;;;1.27;1.17;;;;;;;;;;5133523;27;20202;-59
2022/06/02 13:20:22;;;;;;;1.13;1.02;;;;;;;;;;5131958;27;20389;-59
2022/06/02 13:23:05;;;;;;;1.13;1.10;;;;;;;;;;5125940;27;20269;-59
2022/06/02 13:25:51;;;;;;;1.50;1.02;;;;;;;;;;5129242;27;20194;-59
2022/06/02 13:28:40;;;;;;;1.08;0.90;;;;;;;;;;5132466;27;20222;-59
2022/06/02 13:31:22;;;;;;;1.60;1.08;;;;;;;;;;5097004;27;20305;-59
2022/06/02 13:34:00;;;;;;;1.00;0.90;;;;;;;;;;5131068;27;20208;-60
2022/06/02 13:36:39;;;;;;;1.00;0.90;;;;;;;;;;5132985;27;20258;-60
2022/06/02 13:39:30;;;;;;;1.77;1.00;;;;;;;;;;5132932;27;20585;-59
2022/06/02 13:42:18;;;;;;;0.90;0.90;;;;;;;;;;5131064;27;20301;-60
2022/06/02 13:45:06;;;;;;;1.20;1.10;;;;;;;;;;5133115;27;20285;-60
2022/06/02 13:47:40;;;;;;;1.35;1.25;;;;;;;;;;5133975;27;20202;-59
2022/06/02 13:50:41;;;;;;;0.93;0.93;;;;;;;;;;5133768;27;20220;-60
2022/06/02 13:53:23;;;;;;;2.40;1.10;;;;;;;;;;5047552;28;20200;-60
2022/06/02 13:59:06;;;;;;;1.15;0.90;;;;;;;;;;5106269;27;20210;-60
2022/06/02 14:01:42;;;;;;;0.90;0.90;;;;;;;;;;5132623;27;20628;-60
2022/06/02 14:04:24;;;;;;;0.80;0.80;;;;;;;;;;5132467;27;20204;-59
2022/06/02 14:06:53;;;;;;;0.82;0.82;;;;;;;;;;5107814;27;20202;-59
2022/06/02 14:09:33;;;;;;;1.00;0.90;;;;;;;;;;5130793;27;20233;-60
2022/06/02 14:12:08;;;;;;;1.08;0.88;;;;;;;;;;5129787;27;20204;-59
2022/06/02 14:15:03;;;;;;;1.00;0.90;;;;;;;;;;5130825;27;20619;-59
2022/06/02 14:17:37;;;;;;;1.00;0.90;;;;;;;;;;5079755;27;20198;-59
2022/06/02 14:20:16;;;;;;;0.73;0.73;;;;;;;;;;5130026;27;20205;-59
2022/06/02 14:22:47;;;;;;;0.85;0.85;;;;;;;;;;5130649;27;20202;-60
2022/06/02 14:25:18;;;;;;;0.85;0.85;;;;;;;;;;5131657;27;20592;-59
2022/06/02 14:27:53;;;;;;;0.70;0.70;;;;;;;;;;5130870;27;20456;-59
2022/06/02 14:30:22;;;;;;;0.90;0.90;;;;;;;;;;5131053;27;20222;-59
2022/06/02 14:32:57;;;;;;;0.95;0.80;;;;;;;;;;5130683;27;20638;-59
2022/06/02 14:35:51;;;;;;;1.02;0.90;;;;;;;;;;5131566;27;20212;-59
2022/06/02 14:38:31;;;;;;;0.93;0.82;;;;;;;;;;5080267;28;20229;-60
2022/06/02 14:41:01;;;;;;;1.05;0.80;;;;;;;;;;5130528;27;20330;-59
2022/06/02 14:43:50;;;;;;;1.02;0.90;;;;;;;;;;5131125;27;20218;-59
2022/06/02 14:46:30;;;;;;;0.90;0.90;;;;;;;;;;5131319;27;20289;-59
2022/06/02 14:49:08;;;;;;;0.80;0.70;;;;;;;;;;5130118;28;20425;-59
2022/06/02 14:51:38;;;;;;;0.80;0.80;;;;;;;;;;5131163;28;20221;-59
2022/06/02 14:54:23;;;;;;;1.25;0.85;;;;;;;;;;5131494;28;20234;-58
2022/06/02 14:57:07;;;;;;;0.82;0.70;;;;;;;;;;5132079;28;20202;-59
2022/06/02 14:59:42;;;;;;;0.80;0.70;;;;;;;;;;5131341;28;20270;-59
2022/06/02 15:02:24;;;;;;;1.20;0.82;;;;;;;;;;5131653;28;20588;-59
2022/06/02 15:05:00;;;;;;;1.00;1.00;;;;;;;;;;5130070;28;20194;-60
2022/06/02 15:07:38;;;;;;;1.00;0.90;;;;;;;;;;5131210;28;20205;-59
2022/06/02 15:10:17;;;;;;;0.80;0.80;;;;;;;;;;5131073;28;20218;-59
2022/06/02 15:13:03;;;;;;;0.80;0.80;;;;;;;;;;5131372;28;20194;-59
2022/06/02 15:15:49;;;;;;;0.75;0.70;;;;;;;;;;5131582;28;20228;-59
2022/06/02 15:18:35;;;;;;;0.70;0.70;;;;;;;;;;5133434;27;20205;-59
2022/06/02 15:21:05;;;;;;;0.70;0.70;;;;;;;;;;5139118;27;20201;-59
2022/06/02 15:23:53;;;;;;;0.60;0.60;;;;;;;;;;5136480;27;20202;-59
2022/06/02 15:26:32;;;;;;;0.70;0.70;;;;;;;;;;5136047;27;20202;-60
2022/06/02 15:29:17;;;;;;;1.10;0.70;;;;;;;;;;5134299;27;20257;-59
2022/06/02 15:32:03;;;;;;;0.60;0.60;;;;;;;;;;5135236;27;20195;-59
2022/06/02 15:34:48;;;;;;;0.80;0.80;;;;;;;;;;5135023;27;20209;-59
2022/06/02 15:37:30;;;;;;;0.68;0.68;;;;;;;;;;5133996;27;20209;-59
2022/06/02 15:40:20;;;;;;;0.80;0.80;;;;;;;;;;5136434;27;20202;-60
2022/06/02 15:42:58;;;;;;;0.68;0.65;;;;;;;;;;5135796;27;20202;-59
2022/06/02 15:45:42;;;;;;;0.60;0.60;;;;;;;;;;5136723;27;20216;-59
2022/06/02 15:48:27;;;;;;;0.73;0.70;;;;;;;;;;5136809;27;20209;-60
2022/06/02 15:51:12;;;;;;;0.80;0.80;;;;;;;;;;5136433;27;20650;-59
2022/06/02 15:54:00;;;;;;;0.60;0.60;;;;;;;;;;5134398;27;20415;-59
2022/06/02 15:56:46;;;;;;;0.60;0.60;;;;;;;;;;5135176;27;20205;-59